Terminal Aerodrome Forecast
Issued by NWS

Current Version | Previous Version | Text Only | Print | Product List | Glossary On
Versions: 1 2 3 4 5 6 7 8 9 10 11 12 13
008
FTUS42 KMLB 200541
TAFISM
TAF
KISM 200541Z 2006/2106 VRB03KT P6SM BKN100 BKN250
     FM200900 VRB03KT 4SM BR SCT005 BKN120
     FM201500 21009KT P6SM FEW040 SCT100 BKN250
     FM210000 22005KT P6SM BKN200=

USA.gov is the U.S. government's official web portal to all federal, state and local government web resources and services.